Kendrick, ID

8:54 AM PDT on October 01, 2014 (GMT -0700)
Lewiston-Nez Perce County | Change Station
CLOSE
Current Station
Airport
Location: Lewiston,
Elevation: 1437 ft
Nearby Weather Stations

Elev 1437 ft 46.37 °N, 117.02 °W | Updated 58 minutes ago

Clear
Clear
55 °F
Feels Like 55 °F
N
7
Wind Variable Wind from SE

Today
High -- | Low -- °F
--% Chance of Precip.
Yesterday
High -- | Low -- °F
Precip. -- in
6:45 AM 6:26 PM
Waxing Crescent, 48% visible
Pressure 29.94 in
Visibility 10.0 miles
Clouds Few 6000 ft
Dew Point 43 °F
Humidity 64%
Rainfall 0.05 in
Snow Depth 0 in , 0 in , 0 in
UV 1 out of 12
Pollen 5.80 out of 12
Air Quality Not available.
Flu Activity Not available.
METAR KLWS 301456Z 14006KT 10SM FEW060 13/06 A2994 RMK AO2 SLP137 T01280061 53020

More Conditions Fewer Conditions

Pressure 29.94 in
Visibility 10.0 miles
Clouds Few 6000 ft
Dew Point 43 °F
Humidity 64%
Rainfall 0.05 in
Snow Depth 0 in , 0 in , 0 in
UV 1 out of 12
Pollen 5.80 out of 12
Air Quality Not available.
Flu Activity Not available.
METAR KLWS 301456Z 14006KT 10SM FEW060 13/06 A2994 RMK AO2 SLP137 T01280061 53020

More Conditions Fewer Conditions

Nowcast | as of 5:44 am PDT on October 1, 2014

Through 9 am...fog will impact sheltered valley locations across northeast Washington and northern Idaho. Patches of fog will be locally dense...with visibilities down to one quarter mile at times. The primary areas of concern for dense fog this morning will be along Highway 95...from Coeur D'Alene to Sandpoint and Bonners Ferry...Highway 2 and Route 20 over Pend Oreille County...as well as I-90 from Coeur D'Alene toward Lookout Pass. Morning commuters should be prepared for rapid changes in visibility and allow for greater distance between vehicles when traveling in foggy conditions.

×

10-Day Weather Forecast

Almanac

Astronomy

Oct. 01, 2014 Rise Set
Actual Time 6:45 AM PDT 6:26 PM PDT
Civil Twilight 6:15 AM PDT 6:56 PM PDT
Nautical Twilight 5:39 AM PDT 7:31 PM PDT
Astronomical Twilight 5:04 AM PDT 8:06 PM PDT
Moon 2:05 PM PDT 11:48 PM PDT
Length of Visible Light 12h 41m
Length of Day
11h 40m
Tomorrow will be 3m 18s shorter.
Waxing Crescent, 48% of the Moon is Illuminated
Today
Waxing Crescent
Oct 1
First Quarter
Oct 8
Full
Oct 15
Last Quarter
Oct 23
New

Today's Extremes

State Highs State Lows

Community

WunderPhotos

Upload Photos

1,757,967 photos uploaded!

Nearby

Snow Depth

Station Depth Elevation
Van Wyck 0 in 4920 ft
Schweitzer Basin 0 in 6090 ft
Stickney Mill 0 in 7430 ft
Swede Peak 1 in 7640 ft
Pine Creek Pass 0 in 6720 ft

Earthquake Activity

City Distance Mag. Time & Date
No recent earthquake activity has been reported nearby.
Minimum magnitude displayed is 2.5.

Coastal Water Temperatures

Place Temperature
No Stations Reporting

Nearby Weather Stations